Mc Alester Regional Airport
KMLC : now visible

Airfield :











YOU CAN JOIN US ON...

 
LOGIN :

Register | Disclaimer

   EN    FR    IT 

 









Legend :    VFR   Marginal VFR   IFR   Intensive IFR   Very Intensive IFR
Visi :
Ceiling :
>= 8 km
>= 3000ft
5 to 8 km
1000 to 3000 ft
1500m to 5 km
500 to 1000 ft
800 to 1500m
200 to 500 ft
< 800m
< 200 ft
Symbols :   Thunderstorms  Fog  Heavy snow  Heavy precipitations  Wind > 20 kt






- Airport Elevation : 770 ft


KMLC - Mc Alester Regional

CURRENT METAR :
  • 050053Z AUTO 14004KT 10SM CLR 18/03 A2997 RMK AO2 SLP149 T01780028

EXPIRED METARs :
  • 042353Z AUTO 18006KT 10SM CLR 19/03 A2999 RMK AO2 SLP155 T01940028 10233 20194 55005
  • 042253Z AUTO 19008KT 10SM FEW085 SCT110 21/02 A2999 RMK AO2 SLP153 T02060022

TAF KMLC
Valid from the 05 at 00:00 until the 06 at 00:00 UTC


042336Z 0500/0524 17007KT P6SM BKN120 OVC250
FM051000 13009KT P6SM VCSH OVC050
TEMPO 0512/0516 3SM -RA BKN025
FM051600 08009KT P6SM VCSH OVC025
TEMPO 0516/0520 3SM -RA BKN015
FM052000 05007KT P6SM VCSH OVC015
PROB30 0520/0524 3SM -RA
KZFW FIR / North America



MET'MAP, your aeronautical weather chart ! - Copyright ORBIFLY December 2007 - Disclaimer

ORBIFLY MET'MAP TEAM :

Programming & Development : Alexandra Zaïnal
Concept & original design : Baudouin d'Aumeries
Assistance for programming : Marc-Olivier Méhu
Technical & hardware support : Manuel Goepfert

Contact : metmap@orbifly.com




SOURCES & CREDITS :

   NOAA       Earth
Advisory